Time;durP1;ratioP1;P1;durP2;ratioP2;P2;SDS_P1;SDS_P2;PMS_P1;PMS_P2;Temp;Humidity;BMP_temperature;BMP_pressure;BME280_temperature;BME280_humidity;BME280_pressure;Samples;Min_cycle;Max_cycle;Signal;HPM_P1;HPM_P2
2021/06/07 00:01:08;;;;;;;14.90;10.55;;;16.90;99.90;;;;;;4986496;28;20213;-78
2021/06/07 00:03:35;;;;;;;14.27;10.15;;;16.90;99.90;;;;;;4985308;28;20217;-79
2021/06/07 00:06:01;;;;;;;14.13;9.00;;;16.80;99.90;;;;;;4988938;28;20230;-78
2021/06/07 00:08:26;;;;;;;13.18;10.13;;;16.90;99.90;;;;;;4972900;28;20208;-78
2021/06/07 00:10:52;;;;;;;14.45;9.70;;;16.90;99.90;;;;;;4992580;28;20218;-78
2021/06/07 00:13:19;;;;;;;12.18;8.55;;;16.90;99.90;;;;;;4991961;28;20640;-79
2021/06/07 00:15:45;;;;;;;14.32;10.55;;;16.90;99.90;;;;;;4970945;28;20204;-78
2021/06/07 00:18:10;;;;;;;16.95;10.30;;;16.90;99.90;;;;;;4993935;28;20537;-79
2021/06/07 00:20:40;;;;;;;14.80;10.00;;;16.90;99.90;;;;;;4986936;28;20198;-78
2021/06/07 00:23:09;;;;;;;15.82;11.18;;;16.90;99.90;;;;;;4978860;28;20492;-79
2021/06/07 00:25:35;;;;;;;14.63;10.30;;;16.80;99.90;;;;;;4995498;28;20207;-79
2021/06/07 00:28:01;;;;;;;14.95;11.05;;;16.80;99.90;;;;;;4990977;28;20177;-78
2021/06/07 00:30:26;;;;;;;14.88;10.07;;;16.90;99.90;;;;;;4971725;28;20192;-78
2021/06/07 00:32:52;;;;;;;15.80;10.27;;;16.80;99.90;;;;;;4989456;28;20843;-79
2021/06/07 00:35:22;;;;;;;16.10;10.50;;;16.80;99.90;;;;;;4992926;28;20225;-79
2021/06/07 00:37:49;;;;;;;14.65;9.50;;;16.80;99.90;;;;;;4990171;28;20183;-79
2021/06/07 00:40:16;;;;;;;15.27;10.13;;;16.80;99.90;;;;;;4969335;28;20814;-78
2021/06/07 00:42:42;;;;;;;16.17;11.05;;;16.80;99.90;;;;;;4983517;28;20180;-79
2021/06/07 00:45:13;;;;;;;15.35;10.43;;;16.80;99.90;;;;;;4994836;28;20214;-79
2021/06/07 00:47:39;;;;;;;17.38;11.77;;;16.80;99.90;;;;;;4993603;28;20272;-79
2021/06/07 00:50:12;;;;;;;14.20;10.85;;;16.80;99.90;;;;;;4994435;28;20187;-78
2021/06/07 00:52:59;;;;;;;15.57;10.95;;;16.80;99.90;;;;;;4986359;28;20195;-78
2021/06/07 00:55:25;;;;;;;16.50;11.13;;;16.90;99.90;;;;;;4991703;28;20215;-78
2021/06/07 00:57:52;;;;;;;16.55;11.15;;;16.90;99.90;;;;;;4978978;28;20185;-79
2021/06/07 01:00:19;;;;;;;14.50;10.68;;;16.80;99.90;;;;;;4990132;28;20538;-79
2021/06/07 01:02:44;;;;;;;17.02;10.82;;;16.70;99.90;;;;;;4990219;28;20208;-78
2021/06/07 01:05:11;;;;;;;17.17;11.52;;;16.70;99.90;;;;;;4989374;28;20275;-77
2021/06/07 01:07:36;;;;;;;15.88;11.18;;;16.70;99.90;;;;;;4966358;28;20588;-78
2021/06/07 01:10:02;;;;;;;13.98;10.48;;;16.70;99.90;;;;;;4985367;28;20199;-78
2021/06/07 01:12:28;;;;;;;15.10;10.82;;;16.70;99.90;;;;;;4983359;28;20184;-79
2021/06/07 01:14:54;;;;;;;16.17;10.88;;;16.70;99.90;;;;;;4973745;28;20201;-78
2021/06/07 01:17:19;;;;;;;15.55;10.75;;;16.70;99.90;;;;;;4972056;28;20200;-78
2021/06/07 01:19:45;;;;;;;13.95;10.18;;;16.70;99.90;;;;;;4992404;28;20204;-78
2021/06/07 01:22:11;;;;;;;14.40;9.40;;;16.70;99.90;;;;;;4988129;28;20200;-79
2021/06/07 01:24:36;;;;;;;16.55;10.35;;;16.70;99.90;;;;;;4973385;28;20212;-77
2021/06/07 01:27:02;;;;;;;14.48;10.63;;;16.70;99.90;;;;;;4987915;28;20204;-78
2021/06/07 01:29:28;;;;;;;12.77;10.13;;;16.70;99.90;;;;;;4973374;28;20188;-78
2021/06/07 01:31:53;;;;;;;13.70;10.05;;;16.70;99.90;;;;;;4974866;28;20191;-79
2021/06/07 01:34:19;;;;;;;14.10;10.20;;;16.70;99.90;;;;;;4987635;28;20199;-78
2021/06/07 01:36:45;;;;;;;16.17;10.40;;;16.70;99.90;;;;;;4992084;28;20326;-78
2021/06/07 01:39:10;;;;;;;12.90;9.40;;;16.60;99.90;;;;;;4989905;28;20195;-78
2021/06/07 01:41:36;;;;;;;15.13;10.38;;;16.70;99.90;;;;;;4990007;28;20353;-78
2021/06/07 01:44:02;;;;;;;13.23;9.68;;;16.60;99.90;;;;;;4995129;28;20238;-78
2021/06/07 01:46:27;;;;;;;13.45;10.18;;;16.70;99.90;;;;;;4988117;28;20208;-79
2021/06/07 01:48:53;;;;;;;13.98;9.65;;;16.60;99.90;;;;;;4992551;28;20206;-77
2021/06/07 01:51:19;;;;;;;14.68;10.30;;;16.70;99.90;;;;;;4991640;28;20284;-79
2021/06/07 01:53:46;;;;;;;15.35;9.63;;;16.60;99.90;;;;;;4993143;28;20667;-78
2021/06/07 01:56:12;;;;;;;14.10;10.23;;;16.60;99.90;;;;;;4990736;28;20205;-79
2021/06/07 01:58:39;;;;;;;12.93;9.90;;;16.60;99.90;;;;;;4988237;28;20191;-78
2021/06/07 02:01:16;;;;;;;15.32;11.20;;;16.60;99.90;;;;;;4986202;28;20189;-79
2021/06/07 02:03:42;;;;;;;15.45;10.07;;;16.60;99.90;;;;;;4968728;28;20208;-78
2021/06/07 02:06:10;;;;;;;12.20;9.25;;;16.60;99.90;;;;;;4993250;28;20220;-79
2021/06/07 02:08:37;;;;;;;12.93;10.15;;;16.60;99.90;;;;;;4977910;28;20184;-77
2021/06/07 02:11:15;;;;;;;13.57;9.43;;;16.60;99.90;;;;;;4993457;28;20445;-78
2021/06/07 02:13:41;;;;;;;14.20;10.57;;;16.60;99.90;;;;;;4971843;28;20243;-78
2021/06/07 02:16:30;;;;;;;14.07;9.85;;;16.60;99.90;;;;;;4977593;28;20259;-78
2021/06/07 02:18:56;;;;;;;12.32;9.88;;;16.60;99.90;;;;;;4990849;28;20840;-79
2021/06/07 02:21:23;;;;;;;13.68;9.07;;;16.60;99.90;;;;;;4986772;28;20231;-77
2021/06/07 02:23:49;;;;;;;13.80;10.57;;;16.60;99.90;;;;;;4984703;28;20676;-79
2021/06/07 02:26:16;;;;;;;13.40;9.82;;;16.50;99.90;;;;;;4990304;28;20208;-77
2021/06/07 02:28:50;;;;;;;13.57;9.73;;;16.60;99.90;;;;;;4971417;28;20176;-78
2021/06/07 02:31:18;;;;;;;12.20;9.93;;;16.60;99.90;;;;;;4989655;28;20361;-78
2021/06/07 02:33:45;;;;;;;11.43;10.15;;;16.60;99.90;;;;;;4988390;28;20252;-77
2021/06/07 02:36:11;;;;;;;12.80;9.32;;;16.60;99.90;;;;;;4985552;28;20943;-77
2021/06/07 02:38:36;;;;;;;11.95;9.55;;;16.50;99.90;;;;;;4985225;28;20215;-79
2021/06/07 02:41:02;;;;;;;14.05;10.32;;;16.50;99.90;;;;;;4993148;28;20412;-77
2021/06/07 02:43:28;;;;;;;13.10;10.55;;;16.50;99.90;;;;;;4988072;28;20231;-79
2021/06/07 02:45:54;;;;;;;11.52;9.07;;;16.40;99.90;;;;;;4991199;28;20204;-79
2021/06/07 02:48:21;;;;;;;11.35;9.20;;;16.40;99.90;;;;;;4993717;28;20188;-79
2021/06/07 02:50:48;;;;;;;11.52;9.27;;;16.40;99.90;;;;;;4992222;28;20181;-79
2021/06/07 02:53:15;;;;;;;9.60;8.63;;;16.40;99.90;;;;;;4969811;28;20189;-77
2021/06/07 02:55:49;;;;;;;11.65;8.50;;;16.40;99.90;;;;;;4988705;28;20196;-79
2021/06/07 02:58:15;;;;;;;11.45;9.70;;;16.30;99.90;;;;;;4992453;28;20248;-78
2021/06/07 03:00:47;;;;;;;10.10;8.50;;;16.40;99.90;;;;;;4996208;28;20180;-77
2021/06/07 03:03:13;;;;;;;11.27;9.32;;;16.40;99.90;;;;;;4991752;28;20188;-78
2021/06/07 03:05:42;;;;;;;10.55;8.80;;;16.30;99.90;;;;;;4989092;28;20275;-78
2021/06/07 03:08:10;;;;;;;11.32;9.02;;;16.30;99.90;;;;;;4986862;28;20185;-78
2021/06/07 03:10:36;;;;;;;10.50;8.85;;;16.40;99.90;;;;;;4985593;28;20180;-77
2021/06/07 03:13:02;;;;;;;9.82;7.93;;;16.40;99.90;;;;;;4952528;28;20512;-78
2021/06/07 03:15:28;;;;;;;10.13;8.75;;;16.40;99.90;;;;;;4971713;28;20203;-78
2021/06/07 03:17:55;;;;;;;10.05;8.02;;;16.40;99.90;;;;;;4976988;28;20188;-77
2021/06/07 03:20:26;;;;;;;9.88;8.15;;;16.30;99.90;;;;;;4961820;28;20188;-77
2021/06/07 03:22:54;;;;;;;10.38;8.25;;;16.30;99.90;;;;;;4979135;28;20196;-78
2021/06/07 03:25:20;;;;;;;11.75;8.20;;;16.30;99.90;;;;;;4976880;28;20889;-78
2021/06/07 03:27:45;;;;;;;11.60;8.43;;;16.30;99.90;;;;;;4978830;28;20267;-77
2021/06/07 03:30:12;;;;;;;9.63;7.38;;;16.30;99.90;;;;;;4980520;28;20786;-78
2021/06/07 03:32:38;;;;;;;10.25;8.18;;;16.30;99.90;;;;;;4985556;28;20188;-78
2021/06/07 03:35:07;;;;;;;9.45;7.82;;;16.20;99.90;;;;;;4982761;28;20204;-77
2021/06/07 03:37:33;;;;;;;9.38;7.38;;;16.30;99.90;;;;;;4982685;28;20191;-77
2021/06/07 03:39:59;;;;;;;9.95;7.10;;;16.30;99.90;;;;;;4981127;28;20234;-76
2021/06/07 03:42:24;;;;;;;11.27;8.30;;;16.30;99.90;;;;;;4975483;28;20188;-77
2021/06/07 03:44:50;;;;;;;8.65;7.68;;;16.30;99.90;;;;;;4978225;28;20224;-77
2021/06/07 03:47:15;;;;;;;10.07;8.70;;;16.20;99.90;;;;;;4977040;28;20193;-77
2021/06/07 03:49:41;;;;;;;9.00;7.80;;;16.30;99.90;;;;;;4963764;28;20180;-76
2021/06/07 03:52:07;;;;;;;8.65;6.97;;;16.30;99.90;;;;;;4973401;28;20192;-75
2021/06/07 03:54:32;;;;;;;6.63;5.93;;;16.20;99.90;;;;;;4956496;28;20216;-77
2021/06/07 03:56:58;;;;;;;7.32;5.82;;;16.20;99.90;;;;;;4967888;28;20474;-76
2021/06/07 03:59:23;;;;;;;10.30;6.38;;;16.30;99.90;;;;;;4976603;28;20564;-77
2021/06/07 04:01:49;;;;;;;7.43;5.57;;;16.20;99.90;;;;;;4968607;28;20220;-75
2021/06/07 04:04:14;;;;;;;8.60;6.60;;;16.20;99.90;;;;;;4977054;28;20227;-75
2021/06/07 04:06:40;;;;;;;6.68;5.97;;;16.20;99.90;;;;;;4980363;28;20335;-77
2021/06/07 04:09:06;;;;;;;7.75;6.40;;;16.10;99.90;;;;;;4978506;28;20180;-77
2021/06/07 04:11:32;;;;;;;7.65;6.75;;;16.10;99.90;;;;;;4982199;28;20661;-77
2021/06/07 04:13:57;;;;;;;8.10;6.38;;;16.10;99.90;;;;;;4979867;28;20172;-76
2021/06/07 04:16:23;;;;;;;8.25;5.85;;;16.10;99.90;;;;;;4977376;28;20204;-76
2021/06/07 04:18:49;;;;;;;18.15;7.00;;;16.10;99.90;;;;;;4984586;28;20196;-76
2021/06/07 04:21:14;;;;;;;7.88;6.60;;;16.20;99.90;;;;;;4956074;28;20196;-76
2021/06/07 04:23:40;;;;;;;8.15;6.20;;;16.10;99.90;;;;;;4980866;28;20330;-78
2021/06/07 04:26:05;;;;;;;8.15;6.43;;;16.10;99.90;;;;;;4973865;28;20674;-76
2021/06/07 04:28:33;;;;;;;8.13;6.97;;;16.10;99.90;;;;;;4955382;28;20212;-76
2021/06/07 04:31:01;;;;;;;8.07;6.75;;;16.10;99.90;;;;;;4975227;28;20176;-77
2021/06/07 04:33:27;;;;;;;10.27;6.93;;;16.20;99.90;;;;;;4982377;28;20189;-78
2021/06/07 04:35:53;;;;;;;8.65;6.40;;;16.20;99.90;;;;;;4978485;28;20205;-76
2021/06/07 04:38:18;;;;;;;10.07;6.88;;;16.10;99.90;;;;;;4975042;28;20646;-77
2021/06/07 04:40:44;;;;;;;9.57;7.35;;;16.10;99.90;;;;;;4978389;28;20358;-77
2021/06/07 04:43:12;;;;;;;8.32;6.60;;;16.20;99.90;;;;;;4959054;28;20264;-75
2021/06/07 04:45:40;;;;;;;9.63;7.22;;;16.10;99.90;;;;;;4982409;28;20204;-77
2021/06/07 04:48:06;;;;;;;10.43;7.28;;;16.10;99.90;;;;;;4979314;28;20184;-77
2021/06/07 04:50:32;;;;;;;8.07;7.03;;;16.20;99.90;;;;;;4956124;28;20185;-77
2021/06/07 04:53:00;;;;;;;12.93;7.45;;;16.20;99.90;;;;;;4980643;28;20251;-77
2021/06/07 04:55:28;;;;;;;9.50;7.50;;;16.10;99.90;;;;;;4974457;28;20201;-77
2021/06/07 04:57:55;;;;;;;10.70;7.43;;;16.10;99.90;;;;;;4982051;28;20195;-77
2021/06/07 05:00:22;;;;;;;8.98;7.28;;;16.10;99.90;;;;;;4963041;28;20190;-77
2021/06/07 05:02:49;;;;;;;8.25;7.07;;;16.10;99.90;;;;;;4958499;28;20193;-76
2021/06/07 05:05:15;;;;;;;8.93;6.97;;;16.20;99.90;;;;;;4974046;28;20221;-76
2021/06/07 05:07:41;;;;;;;8.95;7.55;;;16.20;99.90;;;;;;4975335;28;20181;-77
2021/06/07 05:10:07;;;;;;;9.48;7.15;;;16.30;99.90;;;;;;4973345;28;20180;-76
2021/06/07 05:12:32;;;;;;;8.57;6.95;;;16.30;99.90;;;;;;4978279;28;20588;-76
2021/06/07 05:15:00;;;;;;;10.27;7.40;;;16.30;99.90;;;;;;4952950;28;20204;-77
2021/06/07 05:17:26;;;;;;;9.10;7.38;;;16.40;99.90;;;;;;4974845;28;20195;-75
2021/06/07 05:19:52;;;;;;;10.55;8.10;;;16.50;99.90;;;;;;4975710;28;20556;-76
2021/06/07 05:22:18;;;;;;;9.93;7.47;;;16.50;99.90;;;;;;4975110;28;20271;-76
2021/06/07 05:24:43;;;;;;;12.00;7.20;;;16.50;99.90;;;;;;4949875;28;20399;-76
2021/06/07 05:27:10;;;;;;;9.27;7.50;;;16.60;99.90;;;;;;4977235;28;20319;-77
2021/06/07 05:29:36;;;;;;;8.77;7.50;;;16.60;99.90;;;;;;4979301;28;20185;-76
2021/06/07 05:32:01;;;;;;;10.75;7.60;;;16.70;99.90;;;;;;4962424;28;20188;-75
2021/06/07 05:34:27;;;;;;;12.00;7.32;;;16.70;99.90;;;;;;4979418;28;20181;-76
2021/06/07 05:36:52;;;;;;;8.60;6.72;;;16.70;99.90;;;;;;4983092;28;20239;-77
2021/06/07 05:39:19;;;;;;;8.98;6.53;;;16.70;99.90;;;;;;4961349;28;20921;-77
2021/06/07 05:41:49;;;;;;;8.73;7.22;;;16.80;99.90;;;;;;4958927;28;20682;-76
2021/06/07 05:44:15;;;;;;;9.50;7.35;;;16.80;99.90;;;;;;4964102;28;20613;-75
2021/06/07 05:46:41;;;;;;;11.50;7.13;;;16.80;99.90;;;;;;4974478;28;20379;-76
2021/06/07 05:49:06;;;;;;;9.23;7.32;;;16.80;99.90;;;;;;4978353;28;20620;-76
2021/06/07 05:51:33;;;;;;;9.57;6.38;;;16.80;99.90;;;;;;4977223;28;20199;-76
2021/06/07 05:53:59;;;;;;;7.68;6.82;;;16.80;99.90;;;;;;4978080;28;20513;-75
2021/06/07 05:56:25;;;;;;;8.93;7.22;;;16.80;99.90;;;;;;4972671;28;20858;-76
2021/06/07 05:58:56;;;;;;;9.40;7.05;;;16.70;99.90;;;;;;4979726;28;21122;-76
2021/06/07 06:01:22;;;;;;;11.95;8.05;;;16.80;99.90;;;;;;4971818;28;20259;-76
2021/06/07 06:03:48;;;;;;;10.50;7.95;;;16.80;99.90;;;;;;4976301;28;20242;-75
2021/06/07 06:06:14;;;;;;;9.50;7.75;;;16.80;99.90;;;;;;4966980;28;20221;-75
2021/06/07 06:08:40;;;;;;;9.82;7.00;;;16.90;99.90;;;;;;4979471;28;20184;-77
2021/06/07 06:11:05;;;;;;;10.35;7.90;;;17.00;99.90;;;;;;4970405;28;20479;-77
2021/06/07 06:13:31;;;;;;;10.38;8.23;;;17.00;99.90;;;;;;4972364;28;20272;-77
2021/06/07 06:15:56;;;;;;;11.80;8.75;;;17.00;99.90;;;;;;4980334;28;20684;-76
2021/06/07 06:18:22;;;;;;;10.27;7.95;;;17.00;99.90;;;;;;4975724;28;20196;-76
2021/06/07 06:20:47;;;;;;;9.02;7.32;;;17.10;99.90;;;;;;4978491;28;20191;-75
2021/06/07 06:23:13;;;;;;;11.90;8.82;;;17.10;99.90;;;;;;4978512;28;20267;-76
2021/06/07 06:25:39;;;;;;;12.07;8.10;;;17.20;99.90;;;;;;4972780;28;20626;-77
2021/06/07 06:28:05;;;;;;;11.60;8.23;;;17.20;99.90;;;;;;4976396;28;20405;-76
2021/06/07 06:30:30;;;;;;;9.93;7.55;;;17.30;99.90;;;;;;4978276;28;20192;-77
2021/06/07 06:32:58;;;;;;;10.55;7.90;;;17.50;99.90;;;;;;4980146;28;20192;-77
2021/06/07 06:35:24;;;;;;;10.13;7.80;;;17.60;99.90;;;;;;4974957;28;20212;-77
2021/06/07 06:37:50;;;;;;;11.88;8.57;;;17.50;99.90;;;;;;4975868;28;20187;-77
2021/06/07 06:40:22;;;;;;;12.80;8.43;;;17.50;99.90;;;;;;4980252;28;20570;-77
2021/06/07 06:42:49;;;;;;;9.23;8.25;;;17.60;99.90;;;;;;4973490;28;20187;-76
2021/06/07 06:45:15;;;;;;;10.30;8.13;;;17.60;99.90;;;;;;4961302;28;20212;-77
2021/06/07 06:47:41;;;;;;;10.00;7.72;;;17.60;99.90;;;;;;4967697;28;20657;-77
2021/06/07 06:50:10;;;;;;;10.18;7.72;;;17.70;99.90;;;;;;4953057;28;20184;-76
2021/06/07 06:52:36;;;;;;;10.65;7.93;;;17.70;99.90;;;;;;4976679;28;20183;-76
2021/06/07 06:55:02;;;;;;;11.13;8.27;;;17.70;99.90;;;;;;4978148;28;20200;-75
2021/06/07 06:57:28;;;;;;;9.18;6.97;;;17.80;99.90;;;;;;4964216;28;20188;-75
2021/06/07 06:59:54;;;;;;;10.63;7.53;;;17.80;99.90;;;;;;4975857;28;20243;-77
2021/06/07 07:02:20;;;;;;;11.73;7.88;;;17.90;99.90;;;;;;4980410;28;20184;-76
2021/06/07 07:04:45;;;;;;;11.85;7.50;;;18.00;99.90;;;;;;4980629;28;20239;-75
2021/06/07 07:07:11;;;;;;;10.70;7.90;;;18.20;99.90;;;;;;4976653;28;20221;-76
2021/06/07 07:09:38;;;;;;;10.25;7.30;;;18.10;99.90;;;;;;4985439;28;20538;-77
2021/06/07 07:12:05;;;;;;;9.82;7.85;;;18.20;99.90;;;;;;4961522;28;20183;-77
2021/06/07 07:14:30;;;;;;;9.63;7.38;;;18.10;99.90;;;;;;4979379;28;20220;-77
2021/06/07 07:16:56;;;;;;;8.75;6.93;;;18.20;99.90;;;;;;4966487;28;20216;-76
2021/06/07 07:19:22;;;;;;;10.38;7.63;;;18.30;99.90;;;;;;4984692;28;20184;-76
2021/06/07 07:21:47;;;;;;;8.10;7.07;;;18.20;99.90;;;;;;4976751;28;20679;-76
2021/06/07 07:24:13;;;;;;;12.77;8.43;;;18.10;99.90;;;;;;4975963;28;20209;-76
2021/06/07 07:26:38;;;;;;;10.40;7.97;;;18.10;99.90;;;;;;4977447;28;20543;-76
2021/06/07 07:29:04;;;;;;;9.82;7.63;;;18.30;99.90;;;;;;4978229;28;20208;-76
2021/06/07 07:31:30;;;;;;;9.43;6.95;;;18.60;99.90;;;;;;4977490;28;20187;-76
2021/06/07 07:33:55;;;;;;;9.75;7.75;;;18.50;99.90;;;;;;4984775;28;20188;-77
2021/06/07 07:36:21;;;;;;;10.65;7.32;;;18.70;99.90;;;;;;4981808;28;20502;-77
2021/06/07 07:38:47;;;;;;;10.77;7.65;;;18.90;99.90;;;;;;4986646;28;20181;-76
2021/06/07 07:41:13;;;;;;;13.45;6.75;;;18.90;99.90;;;;;;4985002;28;20195;-77
2021/06/07 07:43:38;;;;;;;9.05;7.28;;;19.00;99.90;;;;;;4984263;28;20250;-77
2021/06/07 07:46:04;;;;;;;10.95;7.68;;;19.00;99.90;;;;;;4971797;28;20589;-77
2021/06/07 07:48:30;;;;;;;11.00;7.45;;;19.10;99.90;;;;;;4978630;28;20188;-77
2021/06/07 07:50:56;;;;;;;9.07;7.72;;;19.10;99.90;;;;;;4982947;28;20621;-77
2021/06/07 07:53:24;;;;;;;9.35;7.60;;;19.00;99.90;;;;;;4970280;28;20438;-77
2021/06/07 07:55:51;;;;;;;12.15;7.28;;;19.00;99.90;;;;;;4979319;28;20612;-76
2021/06/07 07:58:17;;;;;;;11.00;7.78;;;19.00;99.90;;;;;;4983710;28;20181;-77
2021/06/07 08:00:43;;;;;;;11.98;8.07;;;19.10;99.90;;;;;;4984096;28;20351;-76
2021/06/07 08:03:09;;;;;;;11.48;7.82;;;19.20;99.90;;;;;;4970820;28;20176;-77
2021/06/07 08:05:35;;;;;;;10.98;8.98;;;19.10;99.90;;;;;;4987785;28;20433;-77
2021/06/07 08:08:01;;;;;;;10.95;8.05;;;19.10;99.90;;;;;;4983270;28;20177;-77
2021/06/07 08:10:27;;;;;;;11.70;8.02;;;19.10;99.90;;;;;;4969353;28;20185;-77
2021/06/07 08:12:54;;;;;;;10.90;8.23;;;19.20;99.90;;;;;;4988928;28;20188;-76
2021/06/07 08:15:20;;;;;;;10.25;8.38;;;19.30;99.90;;;;;;4969571;28;20587;-77
2021/06/07 08:17:45;;;;;;;12.77;8.95;;;19.20;99.90;;;;;;4983355;28;20194;-77
2021/06/07 08:20:16;;;;;;;10.68;8.65;;;19.20;99.90;;;;;;4991458;28;20192;-77
2021/06/07 08:22:43;;;;;;;12.90;8.32;;;19.20;99.90;;;;;;4968691;28;20188;-77
2021/06/07 08:25:09;;;;;;;11.60;8.88;;;19.40;99.90;;;;;;4981855;28;20245;-77
2021/06/07 08:27:35;;;;;;;12.18;9.10;;;19.70;99.90;;;;;;4973943;28;20948;-78
2021/06/07 08:30:02;;;;;;;13.55;9.35;;;19.90;99.90;;;;;;4992459;28;20559;-77
2021/06/07 08:32:28;;;;;;;12.18;9.38;;;20.00;99.90;;;;;;4984592;28;20190;-77
2021/06/07 08:34:53;;;;;;;13.70;9.75;;;20.10;99.90;;;;;;4965841;28;20534;-77
2021/06/07 08:37:19;;;;;;;15.13;10.15;;;20.50;99.90;;;;;;4988454;28;20227;-77
2021/06/07 08:39:45;;;;;;;13.43;9.68;;;20.50;99.90;;;;;;4987798;28;20203;-77
2021/06/07 08:42:10;;;;;;;15.35;11.35;;;20.60;99.90;;;;;;4982496;28;20188;-77
2021/06/07 08:44:38;;;;;;;15.13;10.50;;;20.90;99.90;;;;;;4978372;28;20228;-78
2021/06/07 08:47:04;;;;;;;14.30;10.38;;;20.90;99.90;;;;;;4986426;28;20191;-77
2021/06/07 08:49:30;;;;;;;15.13;10.57;;;20.90;99.90;;;;;;4981897;28;20180;-77
2021/06/07 08:51:56;;;;;;;15.52;10.57;;;20.80;99.90;;;;;;4982489;28;20180;-78
2021/06/07 08:54:21;;;;;;;16.50;11.15;;;20.70;99.90;;;;;;4979427;28;20184;-77
2021/06/07 08:56:47;;;;;;;14.38;10.07;;;20.50;99.90;;;;;;4980234;28;20189;-78
2021/06/07 08:59:14;;;;;;;12.32;9.38;;;20.50;99.90;;;;;;4981564;28;20184;-77
2021/06/07 09:01:41;;;;;;;12.43;10.15;;;20.30;99.90;;;;;;4981984;28;20266;-77
2021/06/07 09:04:15;;;;;;;13.27;9.57;;;20.20;99.90;;;;;;4982719;28;20208;-77
2021/06/07 09:06:44;;;;;;;12.95;8.98;;;20.30;99.90;;;;;;4982464;28;20206;-78
2021/06/07 09:09:12;;;;;;;13.88;8.20;;;20.30;99.90;;;;;;4978037;28;20215;-77
2021/06/07 09:11:50;;;;;;;12.52;9.35;;;20.40;99.90;;;;;;4982366;28;20184;-77
2021/06/07 09:14:22;;;;;;;12.57;9.20;;;20.80;99.90;;;;;;4979754;28;20177;-77
2021/06/07 09:16:48;;;;;;;12.63;8.73;;;21.10;99.90;;;;;;4978015;28;20188;-78
2021/06/07 09:19:22;;;;;;;13.90;8.77;;;21.30;99.90;;;;;;4957730;28;20616;-77
2021/06/07 09:21:49;;;;;;;13.68;10.02;;;21.50;99.90;;;;;;4979936;28;20270;-77
2021/06/07 09:24:15;;;;;;;15.48;10.55;;;21.50;99.90;;;;;;4985442;28;20264;-78
2021/06/07 09:26:50;;;;;;;13.20;9.57;;;21.70;99.90;;;;;;4986859;28;20184;-78
2021/06/07 09:29:24;;;;;;;13.50;9.73;;;21.70;99.90;;;;;;4980809;28;20339;-78
2021/06/07 09:31:52;;;;;;;12.95;10.35;;;21.60;99.90;;;;;;4975600;28;20179;-76
2021/06/07 09:34:29;;;;;;;12.48;8.60;;;21.40;99.90;;;;;;4977855;28;20192;-76
2021/06/07 09:37:02;;;;;;;13.68;9.35;;;21.10;99.90;;;;;;4958577;28;20629;-77
2021/06/07 09:39:28;;;;;;;13.57;8.55;;;21.10;99.90;;;;;;4964539;28;21184;-77
2021/06/07 09:42:09;;;;;;;14.35;9.48;;;20.90;99.90;;;;;;4976209;28;20282;-77
2021/06/07 09:44:47;;;;;;;13.52;9.73;;;20.70;99.90;;;;;;4977665;28;20741;-75
2021/06/07 09:47:20;;;;;;;15.45;9.75;;;20.60;99.90;;;;;;4980922;28;20599;-77
2021/06/07 09:49:50;;;;;;;11.52;9.13;;;20.70;99.90;;;;;;4979266;28;20461;-76
2021/06/07 09:52:25;;;;;;;13.65;9.48;;;21.00;99.90;;;;;;4983632;28;20172;-77
2021/06/07 09:55:12;;;;;;;13.18;8.82;;;21.20;99.90;;;;;;4984120;28;20258;-77
2021/06/07 09:57:51;;;;;;;11.40;7.93;;;21.50;99.90;;;;;;4967873;28;20351;-78
2021/06/07 10:00:40;;;;;;;13.95;9.23;;;21.70;99.90;;;;;;4988771;28;20184;-76
2021/06/07 10:03:23;;;;;;;12.48;8.23;;;21.70;99.90;;;;;;4983457;28;20559;-77
2021/06/07 10:05:54;;;;;;;13.60;8.73;;;22.00;99.90;;;;;;4958389;28;20220;-78
2021/06/07 10:08:22;;;;;;;11.60;9.30;;;22.30;99.90;;;;;;4971485;28;20180;-77
2021/06/07 10:10:48;;;;;;;12.65;8.57;;;22.50;99.90;;;;;;4978690;28;20191;-77
2021/06/07 10:13:14;;;;;;;11.10;7.75;;;22.70;99.90;;;;;;4989779;28;20580;-78
2021/06/07 10:15:46;;;;;;;14.88;8.65;;;22.90;99.90;;;;;;4990315;28;20234;-77
2021/06/07 10:18:13;;;;;;;13.15;8.15;;;22.90;99.90;;;;;;4977611;28;20263;-78
2021/06/07 10:20:51;;;;;;;13.35;7.78;;;23.00;99.90;;;;;;4981879;28;20688;-78
2021/06/07 10:23:24;;;;;;;9.82;7.55;;;23.20;99.90;;;;;;4983916;28;20239;-77
2021/06/07 10:25:52;;;;;;;11.73;7.88;;;23.20;99.90;;;;;;4960986;28;20438;-77
2021/06/07 10:28:24;;;;;;;11.45;7.72;;;23.20;99.90;;;;;;4975304;28;20189;-77
2021/06/07 10:30:52;;;;;;;10.60;7.18;;;23.30;99.90;;;;;;4980104;28;20597;-78
2021/06/07 10:33:29;;;;;;;12.07;7.35;;;23.50;99.90;;;;;;4980149;28;20184;-77
2021/06/07 10:35:56;;;;;;;10.80;7.47;;;23.40;99.90;;;;;;4978463;28;20197;-76
2021/06/07 10:38:32;;;;;;;10.80;7.50;;;23.60;99.90;;;;;;4983625;28;20188;-77
2021/06/07 10:41:20;;;;;;;10.02;6.90;;;23.90;99.90;;;;;;4988464;28;20203;-78
2021/06/07 10:43:49;;;;;;;11.07;7.50;;;23.90;99.90;;;;;;4989737;28;20212;-77
2021/06/07 10:46:28;;;;;;;11.60;8.18;;;23.90;99.90;;;;;;4995328;28;20267;-78
2021/06/07 10:48:58;;;;;;;10.52;7.43;;;24.20;99.90;;;;;;4977924;28;20184;-78
2021/06/07 10:51:27;;;;;;;9.57;6.68;;;24.10;99.90;;;;;;4995927;28;20267;-77
2021/06/07 10:53:53;;;;;;;9.15;7.00;;;23.80;99.90;;;;;;4992804;28;20188;-78
2021/06/07 10:56:25;;;;;;;11.68;7.80;;;23.60;99.90;;;;;;4988784;28;20957;-76
2021/06/07 10:58:59;;;;;;;11.18;7.65;;;23.70;99.90;;;;;;4974493;28;20188;-77
2021/06/07 11:01:50;;;;;;;12.27;7.45;;;23.70;99.90;;;;;;4990133;28;20219;-77
2021/06/07 11:04:34;;;;;;;9.02;6.57;;;23.50;99.90;;;;;;4995915;28;20680;-78
2021/06/07 11:07:18;;;;;;;10.98;7.53;;;23.80;99.90;;;;;;4986350;28;20257;-75
2021/06/07 11:10:17;;;;;;;10.18;7.32;;;23.70;99.90;;;;;;4987592;28;20254;-77
2021/06/07 11:12:46;;;;;;;11.48;7.82;;;23.60;99.90;;;;;;4970436;28;20180;-78
2021/06/07 11:15:15;;;;;;;12.32;7.93;;;24.10;99.90;;;;;;4972693;28;20581;-78
2021/06/07 11:17:44;;;;;;;12.20;7.55;;;24.40;99.90;;;;;;4991084;28;20227;-77
2021/06/07 11:20:10;;;;;;;10.35;7.30;;;24.50;99.90;;;;;;4987690;28;20240;-77
2021/06/07 11:23:02;;;;;;;10.23;7.65;;;24.40;99.90;;;;;;4985879;28;20215;-77
2021/06/07 11:25:28;;;;;;;12.20;7.72;;;24.10;99.90;;;;;;4961939;28;20573;-77
2021/06/07 11:27:53;;;;;;;13.68;8.23;;;23.90;99.90;;;;;;4988307;28;20220;-78
2021/06/07 11:30:21;;;;;;;10.38;6.80;;;23.90;99.90;;;;;;4973570;28;20556;-76
2021/06/07 11:32:48;;;;;;;10.75;8.20;;;24.30;99.90;;;;;;4985887;28;20192;-77
2021/06/07 11:35:39;;;;;;;10.65;7.75;;;24.50;99.90;;;;;;4985403;28;20213;-76
2021/06/07 11:38:35;;;;;;;12.15;8.10;;;24.80;99.90;;;;;;4967023;28;20248;-78
2021/06/07 11:41:25;;;;;;;10.68;7.85;;;24.80;99.90;;;;;;4965303;28;20199;-78
2021/06/07 11:43:50;;;;;;;10.05;7.75;;;24.50;99.90;;;;;;4994207;28;20239;-76
2021/06/07 11:46:31;;;;;;;12.32;8.25;;;24.00;99.90;;;;;;4987970;28;20223;-77
2021/06/07 11:49:18;;;;;;;13.00;8.20;;;23.90;99.90;;;;;;4988588;28;20184;-80
2021/06/07 11:52:04;;;;;;;10.90;7.85;;;24.10;99.90;;;;;;4978807;28;20263;-77
2021/06/07 11:54:36;;;;;;;11.63;8.27;;;24.60;99.90;;;;;;4979201;28;20184;-76
2021/06/07 11:57:04;;;;;;;10.80;8.15;;;24.60;99.90;;;;;;4966174;28;20258;-78
2021/06/07 11:59:32;;;;;;;11.20;8.27;;;24.50;99.90;;;;;;4990074;28;20290;-77
2021/06/07 12:01:59;;;;;;;12.30;8.50;;;24.60;99.90;;;;;;4988733;28;20394;-79
2021/06/07 12:04:30;;;;;;;11.93;8.15;;;24.90;99.90;;;;;;4990828;28;20222;-78
2021/06/07 12:07:00;;;;;;;10.82;7.78;;;25.10;99.90;;;;;;4981684;28;20565;-78
2021/06/07 12:09:27;;;;;;;12.00;8.23;;;25.00;99.90;;;;;;4989891;28;20189;-77
2021/06/07 12:11:52;;;;;;;11.38;8.40;;;24.90;99.90;;;;;;4985170;28;20192;-78
2021/06/07 12:14:29;;;;;;;11.13;8.90;;;24.70;99.90;;;;;;4989965;28;20407;-78
2021/06/07 12:17:00;;;;;;;10.93;8.25;;;24.60;99.90;;;;;;4986956;28;20556;-78
2021/06/07 12:19:41;;;;;;;10.73;7.75;;;24.70;99.90;;;;;;4969657;28;20292;-78
2021/06/07 12:22:25;;;;;;;10.60;8.23;;;24.70;99.90;;;;;;4985320;28;20341;-77
2021/06/07 12:24:57;;;;;;;11.07;8.02;;;25.00;99.90;;;;;;4982182;28;20708;-79
2021/06/07 12:30:19;;;;;;;9.02;7.50;;;25.40;99.90;;;;;;4979700;28;20215;-76
2021/06/07 12:32:48;;;;;;;9.43;7.13;;;25.60;99.90;;;;;;4987080;28;20188;-79
2021/06/07 12:35:17;;;;;;;10.73;7.35;;;25.60;99.90;;;;;;4980489;28;20293;-76
2021/06/07 12:37:49;;;;;;;11.02;7.68;;;25.60;99.90;;;;;;4986172;28;20440;-78
2021/06/07 12:40:23;;;;;;;9.32;7.05;;;25.60;99.90;;;;;;4972451;28;20751;-76
2021/06/07 12:42:53;;;;;;;8.93;7.22;;;25.70;99.90;;;;;;4982558;28;21247;-79
2021/06/07 12:45:23;;;;;;;9.90;7.30;;;25.80;99.90;;;;;;4962004;28;20212;-79
2021/06/07 12:47:49;;;;;;;7.65;6.47;;;25.50;99.90;;;;;;4963422;28;20181;-78